Flight Track Log - Related Links

Times and Time Zones

All times are in EST time to prevent confusion due to time zone crossing. See the AWE422 flight status page for this flight to view local times or setup timezone preferences in your user account.

Time Position Orientation Groundspeed Altitude Reporting Facility
EST Latitude Longitude Course Direction KTS MPH feet Rate Location/Type
Tue 08:03:47 AM 29.5464 -98.4467 90° East 142 163 2,000  Level Houston Center
Tue 08:03:53 AM 29.5503 -98.4436 34° Northeast 145 167 2,100 1,701 Climbing Houston Center
Tue 08:04:54 AM 29.5794 -98.3983 53° Northeast 195 224 3,900 2,311 Climbing Houston Center
Tue 08:05:55 AM 29.5908 -98.3069 82° East 270 311 6,800 3,098 Climbing Houston Center
Tue 08:06:56 AM 29.6033 -98.2125 81° East 295 339 10,200 2,410 Climbing Houston Center
Tue 08:07:57 AM 29.6178 -98.1036 81° East 353 406 11,700 1,377 Climbing Houston Center
Tue 08:08:00 AM 29.6500 -97.7574 90° East  Level FlightAware Approximate
Tue 08:08:58 AM 29.6342 -97.9828 81° East 379 436 13,000  Level Houston Center
Tue 08:09:00 AM 29.6500 -97.6071 90° East  Level FlightAware Approximate
Tue 08:09:59 AM 29.6494 -97.8619 82° East 381 438 13,300  Level Houston Center
Tue 08:11:00 AM 29.6553 -97.7356 87° East 393 452 15,600 2,164 Climbing Houston Center
Tue 08:12:01 AM 29.6561 -97.6033 90° East 409 471 17,700 1,967 Climbing Houston Center
Tue 08:13:02 AM 29.6578 -97.4625 89° East 434 499 19,600 1,869 Climbing Houston Center
Tue 08:14:03 AM 29.6586 -97.3169 90° East 451 519 21,500 1,820 Climbing Houston Center
Tue 08:15:04 AM 29.6603 -97.1664 89° East 465 535 23,300 1,672 Climbing Houston Center
Tue 08:16:05 AM 29.6592 -97.0128 90° East 475 547 24,900 1,525 Climbing Houston Center
Tue 08:17:06 AM 29.6336 -96.8572 101° East 489 563 26,400 1,463 Climbing Houston Center
Tue 08:18:08 AM 29.6067 -96.6994 101° East 496 571 27,900 1,268 Climbing Houston Center
Tue 08:19:09 AM 29.5886 -96.5369 97° East 505 581 29,000 1,082 Climbing Houston Center
Tue 08:20:10 AM 29.5689 -96.3714 98° East 518 596 30,100 1,230 Climbing Houston Center
Tue 08:21:11 AM 29.5644 -96.2036 92° East 528 608 31,500 1,279 Climbing Houston Center
Tue 08:22:12 AM 29.6081 -96.0428 73° East 525 604 32,700 1,268 Climbing Houston Center
Tue 08:23:14 AM 29.6825 -95.8961 60° Northeast 526 605 34,100 1,415 Climbing Houston Center
Tue 08:24:15 AM 29.7706 -95.7211 60° Northeast 526 605 35,600 1,180 Climbing Houston Center
Tue 08:25:16 AM 29.8422 -95.5747 61° Northeast 523 602 36,500 683 Climbing Houston Center
Tue 08:26:18 AM 29.9175 -95.4297 59° Northeast 522 601 37,000 244 Climbing Houston Center
Tue 08:27:19 AM 29.9856 -95.2803 62° Northeast 522 601 37,000  Level Houston Center
Tue 08:28:20 AM 30.0450 -95.1256 66° East 522 601 37,000  Level Houston Center
Tue 08:29:21 AM 30.1050 -94.9711 66° East 523 602 37,000  Level Houston Center
Tue 08:30:23 AM 30.1650 -94.8183 66° East 522 601 37,000  Level Houston Center
Tue 08:31:24 AM 30.2242 -94.6653 66° East 521 600 37,000  Level Houston Center
Tue 08:32:25 AM 30.2833 -94.5114 66° East 522 601 37,000  Level Houston Center
Tue 08:33:27 AM 30.3500 -94.3375 66° East 524 603 37,000  Level Houston Center
Tue 08:34:28 AM 30.4089 -94.1839 66° East 522 601 37,000  Level Houston Center
Tue 08:35:29 AM 30.4683 -94.0294 66° East 524 603 37,000 -48 Level Houston Center
Tue 08:36:32 AM 30.5264 -93.8758 66° East 520 598 36,900 -49 Descending Houston Center
Tue 08:37:32 AM 30.5853 -93.7203 66° East 520 598 36,900  Level Houston Center
Tue 08:38:34 AM 30.6428 -93.5644 67° East 518 596 36,900 49 Level Houston Center
Tue 08:39:35 AM 30.7008 -93.4092 66° East 518 596 37,000 49 Climbing Houston Center
Tue 08:40:36 AM 30.7578 -93.2544 67° East 518 596 37,000 -49 Level Houston Center
Tue 08:41:38 AM 30.8156 -93.0981 67° East 523 602 36,900  Descending Houston Center
Tue 08:42:39 AM 30.8781 -92.9294 67° East 520 598 37,000 49 Climbing Houston Center
Tue 08:43:41 AM 30.9344 -92.7761 67° East 521 600 37,000  Level Houston Center
Tue 08:44:42 AM 30.9911 -92.6217 67° East 524 603 37,000  Level Houston Center
Tue 08:45:44 AM 31.0547 -92.4461 67° East 523 602 37,000  Level Houston Center
Tue 08:46:45 AM 31.1114 -92.2900 67° East 523 602 37,000 -49 Level Houston Center
Tue 08:47:47 AM 31.1675 -92.1344 67° East 521 600 36,900  Descending Houston Center
Tue 08:48:48 AM 31.2239 -91.9756 67° East 518 596 37,000 49 Climbing Houston Center
Tue 08:49:50 AM 31.2789 -91.8206 67° East 519 597 37,000  Level Houston Center
Tue 08:50:51 AM 31.3342 -91.6647 67° East 521 600 37,000  Level Houston Center
Tue 08:51:53 AM 31.3903 -91.5089 67° East 521 600 37,000  Level Houston Center
Tue 08:52:55 AM 31.4444 -91.3536 68° East 519 597 37,000  Level Houston Center
Tue 08:53:56 AM 31.4989 -91.1969 68° East 520 598 37,000 -49 Level Houston Center
Tue 08:54:57 AM 31.5642 -91.0128 67° East 522 601 36,900  Descending Houston Center
Tue 08:55:59 AM 31.6186 -90.8539 68° East 524 603 37,000 49 Climbing Houston Center
Tue 08:57:00 AM 31.6736 -90.6947 68° East 526 605 37,000  Level Houston Center
Tue 08:58:02 AM 31.7278 -90.5358 68° East 524 603 37,000  Level Houston Center
Tue 08:59:03 AM 31.7831 -90.3756 68° East 528 608 37,000 -49 Level Houston Center
Tue 09:00:05 AM 31.8375 -90.2156 68° East 527 606 36,900 -49 Descending Houston Center
Tue 09:01:06 AM 31.8917 -90.0550 68° East 528 608 36,900 63 Level Houston Center
Tue 09:01:40 AM 31.9306 -89.9403 68° East 527 606 37,000 63 Climbing Memphis Center
Tue 09:02:41 AM 31.9842 -89.7783 69° East 532 612 37,000  Level Memphis Center
Tue 09:03:42 AM 32.0375 -89.6175 69° East 532 612 37,000  Level Memphis Center
Tue 09:04:44 AM 32.0914 -89.4575 68° East 532 612 37,000  Level Memphis Center
Tue 09:05:45 AM 32.1442 -89.2961 69° East 531 611 37,000  Level Memphis Center
Tue 09:06:47 AM 32.1975 -89.1347 69° East 532 612 37,000  Level Memphis Center
Tue 09:07:48 AM 32.2611 -88.9428 69° East 530 610 37,000  Level Memphis Center
Tue 09:08:50 AM 32.3136 -88.7800 69° East 532 612 37,000  Level Memphis Center
Tue 09:09:51 AM 32.3661 -88.6175 69° East 533 613 37,000  Level Memphis Center
Tue 09:10:52 AM 32.4125 -88.4722 69° East 531 611 37,000  Level Memphis Center
Tue 09:11:54 AM 32.4703 -88.2925 69° East 534 615 37,000  Level Memphis Center
Tue 09:12:55 AM 32.5228 -88.1303 69° East 532 612 37,000  Level Memphis Center
Tue 09:13:57 AM 32.5736 -87.9678 70° East 531 611 37,000  Level Memphis Center
Tue 09:14:58 AM 32.6328 -87.7811 69° East 535 616 37,000  Level Memphis Center
Tue 09:16:00 AM 32.6842 -87.6161 70° East 534 615 37,000  Level Memphis Center
Tue 09:17:01 AM 32.7342 -87.4578 69° East 535 616 37,000  Level Memphis Center
Tue 09:18:03 AM 32.7856 -87.2914 70° East 537 618 37,000  Level Memphis Center
Tue 09:19:23 AM 32.8597 -87.0583 69° East 526 605 37,000  Level Atlanta Center
Tue 09:20:23 AM 32.9117 -86.8917 70° East 526 605 37,000  Level Atlanta Center
Tue 09:21:23 AM 32.9636 -86.7200 70° East 532 612 37,000  Level Atlanta Center
Tue 09:22:23 AM 33.0131 -86.5533 70° East 532 612 37,000  Level Atlanta Center
Tue 09:23:23 AM 33.0622 -86.3886 70° East 532 612 37,000  Level Atlanta Center
Tue 09:24:23 AM 33.1114 -86.2164 71° East 537 618 37,000  Level Atlanta Center
Tue 09:25:23 AM 33.1622 -86.0489 70° East 531 611 37,000  Level Atlanta Center
Tue 09:26:23 AM 33.2172 -85.8664 70° East 538 619 37,000  Level Atlanta Center
Tue 09:27:23 AM 33.2675 -85.6983 70° East 538 619 37,000  Level Atlanta Center
Tue 09:28:23 AM 33.3178 -85.5253 71° East 538 619 37,000  Level Atlanta Center
Tue 09:29:23 AM 33.3656 -85.3619 71° East 526 605 37,000  Level Atlanta Center
Tue 09:30:23 AM 33.4153 -85.1986 70° East 521 600 37,000  Level Atlanta Center
Tue 09:31:23 AM 33.4625 -85.0297 71° East 521 600 37,000 -200 Level Atlanta Center
Tue 09:32:23 AM 33.5075 -84.8658 72° East 521 600 36,600 -650 Descending Atlanta Center
Tue 09:33:23 AM 33.5567 -84.6944 71° East 521 600 35,700 -800 Descending Atlanta Center
Tue 09:34:23 AM 33.6056 -84.5278 71° East 526 605 35,000 650 Descending Atlanta Center
Tue 09:35:23 AM 33.6497 -84.3533 73° East 526 605 37,000  Climbing Atlanta Center
Tue 09:36:23 AM 33.6981 -84.1836 71° East 526 605 35,000 -1,000 Descending Atlanta Center
Tue 09:37:23 AM 33.7483 -84.0114 71° East 539 620 35,000  Level Atlanta Center
Tue 09:38:23 AM 33.7961 -83.8314 72° East 550 633 35,000 -200 Level Atlanta Center
Tue 09:39:23 AM 33.8458 -83.6586 71° East 550 633 34,600 -750 Descending Atlanta Center
Tue 09:40:23 AM 33.8953 -83.4808 71° East 550 633 33,500 -1,100 Descending Atlanta Center
Tue 09:41:23 AM 33.9422 -83.3075 72° East 544 626 32,400 -1,100 Descending Atlanta Center
Tue 09:42:23 AM 33.9869 -83.1294 73° East 549 632 31,300 -1,000 Descending Atlanta Center
Tue 09:43:23 AM 34.0317 -82.9761 71° East 544 626 30,400 -950 Descending Atlanta Center
Tue 09:44:23 AM 34.0739 -82.8050 73° East 544 626 29,400 -1,000 Descending Atlanta Center
Tue 09:45:23 AM 34.1200 -82.6311 72° East 538 619 28,400 -1,450 Descending Atlanta Center
Tue 09:46:23 AM 34.1742 -82.4494 70° East 532 612 26,500 -2,000 Descending Atlanta Center
Tue 09:47:23 AM 34.2200 -82.2803 72° East 525 604 24,400 -2,050 Descending Atlanta Center
Tue 09:48:23 AM 34.2719 -82.1258 68° East 519 597 22,400 -2,800 Descending Atlanta Center
Tue 09:49:23 AM 34.3600 -82.0181 45° Northeast 461 531 18,800 -2,700 Descending Atlanta Center
Tue 09:50:23 AM 34.4458 -81.9103 46° Northeast 446 513 17,000 -1,900 Descending Atlanta Center
Tue 09:51:23 AM 34.5294 -81.8075 45° Northeast 434 499 15,000 -2,000 Descending Atlanta Center
Tue 09:52:23 AM 34.6069 -81.7044 48° Northeast 422 486 13,000 -1,870 Descending Atlanta Center
Tue 09:52:40 AM 34.6314 -81.6783 41° Northeast 406 467 12,600 -1,400 Descending Atlanta Center
Tue 09:53:23 AM 34.6803 -81.6139 47° Northeast 401 461 11,600 -1,343 Descending Atlanta Center
Tue 09:53:47 AM 34.7067 -81.5803 46° Northeast 330 380 11,100 -600 Descending Atlanta Center
Tue 09:54:23 AM 34.7411 -81.5314 49° Northeast 360 414 11,000  Descending Atlanta Center
Tue 09:54:48 AM 34.7697 -81.4975 44° Northeast 317 365 11,100  Climbing Atlanta Center
Tue 09:55:23 AM 34.8003 -81.4561 48° Northeast 324 373 11,000 -222 Descending Atlanta Center
Tue 09:55:42 AM 34.8183 -81.4278 52° Northeast 296 341 10,900 -1,000 Descending Atlanta Center
Tue 09:56:23 AM 34.8192 -81.3669 89° East 279 321 10,000 -1,377 Descending Atlanta Center
Tue 09:56:43 AM 34.8164 -81.3342 96° East 262 302 9,500 -1,600 Descending Atlanta Center
Tue 09:57:23 AM 34.8150 -81.2786 92° East 264 304 8,400 -1,254 Descending Atlanta Center
Tue 09:57:50 AM 34.8100 -81.2408 99° East 260 299 8,100 -1,000 Descending Atlanta Center
Tue 09:58:23 AM 34.8047 -81.1931 98° East 257 296 7,400 -984 Descending Atlanta Center
Tue 09:58:51 AM 34.8081 -81.1600 83° East 221 254 7,100 -400 Descending Atlanta Center
Tue 09:59:23 AM 34.8031 -81.1169 98° East 233 268 7,000 -545 Descending Atlanta Center
Tue 09:59:46 AM 34.8044 -81.0917 86° East 220 253 6,600 -900 Descending Atlanta Center
Tue 10:00:23 AM 34.7972 -81.0464 101° East 221 254 6,100 -492 Descending Atlanta Center
Tue 10:00:47 AM 34.7922 -81.0139 101° East 217 250 6,100  Level Atlanta Center
Tue 10:01:23 AM 34.7933 -80.9808 88° East 210 242 6,100  Level Atlanta Center
Tue 10:01:48 AM 34.8183 -80.9722 16° North 185 213 6,100 -500 Level Atlanta Center
Tue 10:02:23 AM 34.8431 -80.9614 20° North 155 178 5,600 -896 Descending Atlanta Center
Tue 10:02:55 AM 34.8697 -80.9503 19° North 177 204 5,100 -387 Descending Atlanta Center
Tue 10:03:56 AM 34.9197 -80.9458 North 165 190 5,000 -50 Descending Atlanta Center
Tue 10:04:56 AM 34.9678 -80.9467 359° North 166 191 5,000 -149 Level Atlanta Center
Tue 10:05:57 AM 35.0117 -80.9525 354° North 167 192 4,700 -639 Descending Atlanta Center
Tue 10:06:58 AM 35.0578 -80.9558 357° North 168 193 3,700 -934 Descending Atlanta Center
Tue 10:07:59 AM 35.1039 -80.9592 357° North 162 186 2,800 -836 Descending Atlanta Center
Tue 10:09:00 AM 35.1414 -80.9631 355° North 141 162 2,000 -738 Descending Atlanta Center
Tue 10:10:01 AM 35.1769 -80.9667 355° North 111 128 1,300 -689 Descending Atlanta Center

Login

Don't have an account? Register now (free) for customized features, flight alerts, and more!